sensor_id;sensor_type;location;lat;lon;timestamp;pressure;altitude;pressure_sealevel;temperature;humidity
59073;BME280;44859;51.934;15.554;2023-01-08T00:01:54;99405.27;;;2.66;100.00
59073;BME280;44859;51.934;15.554;2023-01-08T00:04:23;99403.96;;;2.63;100.00
59073;BME280;44859;51.934;15.554;2023-01-08T00:06:51;99397.92;;;2.61;100.00
59073;BME280;44859;51.934;15.554;2023-01-08T00:09:20;99389.10;;;2.61;100.00
59073;BME280;44859;51.934;15.554;2023-01-08T00:11:48;99379.60;;;2.59;100.00
59073;BME280;44859;51.934;15.554;2023-01-08T00:14:16;99379.29;;;2.57;100.00
59073;BME280;44859;51.934;15.554;2023-01-08T00:16:51;99373.83;;;2.53;100.00
59073;BME280;44859;51.934;15.554;2023-01-08T00:19:20;99374.74;;;2.51;100.00
59073;BME280;44859;51.934;15.554;2023-01-08T00:21:48;99375.79;;;2.50;100.00
59073;BME280;44859;51.934;15.554;2023-01-08T00:24:19;99373.23;;;2.48;100.00
59073;BME280;44859;51.934;15.554;2023-01-08T00:26:50;99375.69;;;2.47;100.00
59073;BME280;44859;51.934;15.554;2023-01-08T00:29:18;99373.16;;;2.44;100.00
59073;BME280;44859;51.934;15.554;2023-01-08T00:31:50;99367.02;;;2.40;100.00
59073;BME280;44859;51.934;15.554;2023-01-08T00:34:23;99373.14;;;2.37;100.00
59073;BME280;44859;51.934;15.554;2023-01-08T00:36:51;99373.05;;;2.33;100.00
59073;BME280;44859;51.934;15.554;2023-01-08T00:39:20;99379.36;;;2.30;100.00
59073;BME280;44859;51.934;15.554;2023-01-08T00:41:52;99378.77;;;2.25;100.00
59073;BME280;44859;51.934;15.554;2023-01-08T00:44:21;99384.06;;;2.21;100.00
59073;BME280;44859;51.934;15.554;2023-01-08T00:46:52;99393.13;;;2.19;100.00
59073;BME280;44859;51.934;15.554;2023-01-08T00:49:21;99401.00;;;2.15;100.00
59073;BME280;44859;51.934;15.554;2023-01-08T00:51:49;99399.52;;;2.10;100.00
59073;BME280;44859;51.934;15.554;2023-01-08T00:54:17;99400.14;;;2.06;100.00
59073;BME280;44859;51.934;15.554;2023-01-08T00:56:46;99403.27;;;2.05;100.00
59073;BME280;44859;51.934;15.554;2023-01-08T00:59:14;99405.56;;;2.04;100.00
59073;BME280;44859;51.934;15.554;2023-01-08T01:01:43;99402.11;;;2.03;100.00
59073;BME280;44859;51.934;15.554;2023-01-08T01:04:11;99401.12;;;2.00;100.00
59073;BME280;44859;51.934;15.554;2023-01-08T01:06:42;99394.26;;;1.97;100.00
59073;BME280;44859;51.934;15.554;2023-01-08T01:09:11;99388.21;;;1.96;100.00
59073;BME280;44859;51.934;15.554;2023-01-08T01:11:39;99385.83;;;1.94;100.00
59073;BME280;44859;51.934;15.554;2023-01-08T01:14:10;99384.45;;;1.93;100.00
59073;BME280;44859;51.934;15.554;2023-01-08T01:16:41;99379.42;;;1.94;100.00
59073;BME280;44859;51.934;15.554;2023-01-08T01:19:15;99377.33;;;1.95;100.00
59073;BME280;44859;51.934;15.554;2023-01-08T01:21:45;99375.78;;;1.94;100.00
59073;BME280;44859;51.934;15.554;2023-01-08T01:24:13;99373.75;;;1.92;100.00
59073;BME280;44859;51.934;15.554;2023-01-08T01:26:49;99375.80;;;1.94;100.00
59073;BME280;44859;51.934;15.554;2023-01-08T01:29:22;99376.42;;;1.96;100.00
59073;BME280;44859;51.934;15.554;2023-01-08T01:31:52;99375.79;;;2.02;100.00
59073;BME280;44859;51.934;15.554;2023-01-08T01:34:20;99376.05;;;2.07;100.00
59073;BME280;44859;51.934;15.554;2023-01-08T01:36:49;99369.08;;;2.09;100.00
59073;BME280;44859;51.934;15.554;2023-01-08T01:39:20;99363.19;;;2.09;100.00
59073;BME280;44859;51.934;15.554;2023-01-08T01:41:49;99365.24;;;2.10;100.00
59073;BME280;44859;51.934;15.554;2023-01-08T01:44:44;99357.38;;;2.12;100.00
59073;BME280;44859;51.934;15.554;2023-01-08T01:52:36;99345.42;;;2.12;100.00
59073;BME280;44859;51.934;15.554;2023-01-08T01:55:06;99349.20;;;2.07;100.00
59073;BME280;44859;51.934;15.554;2023-01-08T01:57:40;99348.77;;;2.03;100.00
59073;BME280;44859;51.934;15.554;2023-01-08T02:00:13;99343.59;;;2.02;100.00
59073;BME280;44859;51.934;15.554;2023-01-08T02:02:43;99341.16;;;2.02;100.00
59073;BME280;44859;51.934;15.554;2023-01-08T02:05:12;99330.94;;;2.02;100.00
59073;BME280;44859;51.934;15.554;2023-01-08T02:07:52;99329.19;;;2.03;100.00
59073;BME280;44859;51.934;15.554;2023-01-08T02:10:42;99326.52;;;2.06;100.00
59073;BME280;44859;51.934;15.554;2023-01-08T02:13:22;99311.14;;;2.12;100.00
59073;BME280;44859;51.934;15.554;2023-01-08T02:16:01;99303.23;;;2.18;100.00
59073;BME280;44859;51.934;15.554;2023-01-08T02:18:43;99291.39;;;2.20;100.00
59073;BME280;44859;51.934;15.554;2023-01-08T02:24:05;99279.84;;;2.25;100.00
59073;BME280;44859;51.934;15.554;2023-01-08T02:26:39;99273.45;;;2.24;100.00
59073;BME280;44859;51.934;15.554;2023-01-08T02:31:42;99268.89;;;2.19;100.00
59073;BME280;44859;51.934;15.554;2023-01-08T02:34:14;99268.88;;;2.12;100.00
59073;BME280;44859;51.934;15.554;2023-01-08T02:36:49;99266.08;;;2.06;100.00
59073;BME280;44859;51.934;15.554;2023-01-08T02:42:34;99268.84;;;1.90;100.00
59073;BME280;44859;51.934;15.554;2023-01-08T02:45:12;99273.16;;;1.83;100.00
59073;BME280;44859;51.934;15.554;2023-01-08T02:47:48;99273.84;;;1.75;100.00
59073;BME280;44859;51.934;15.554;2023-01-08T02:50:29;99281.13;;;1.66;100.00
59073;BME280;44859;51.934;15.554;2023-01-08T02:53:08;99274.54;;;1.57;100.00
59073;BME280;44859;51.934;15.554;2023-01-08T02:55:42;99276.79;;;1.49;100.00
59073;BME280;44859;51.934;15.554;2023-01-08T02:58:12;99265.38;;;1.40;100.00
59073;BME280;44859;51.934;15.554;2023-01-08T03:00:43;99257.52;;;1.35;100.00
59073;BME280;44859;51.934;15.554;2023-01-08T03:05:48;99262.79;;;1.31;100.00
59073;BME280;44859;51.934;15.554;2023-01-08T03:08:20;99256.23;;;1.30;100.00
59073;BME280;44859;51.934;15.554;2023-01-08T03:11:03;99251.02;;;1.31;100.00
59073;BME280;44859;51.934;15.554;2023-01-08T03:13:41;99244.94;;;1.32;100.00
59073;BME280;44859;51.934;15.554;2023-01-08T03:16:17;99248.00;;;1.35;100.00
59073;BME280;44859;51.934;15.554;2023-01-08T03:18:53;99252.64;;;1.36;100.00
59073;BME280;44859;51.934;15.554;2023-01-08T03:21:25;99255.38;;;1.38;100.00
59073;BME280;44859;51.934;15.554;2023-01-08T03:23:55;99263.17;;;1.38;100.00
59073;BME280;44859;51.934;15.554;2023-01-08T03:26:25;99251.95;;;1.37;100.00
59073;BME280;44859;51.934;15.554;2023-01-08T03:28:56;99238.95;;;1.37;100.00
59073;BME280;44859;51.934;15.554;2023-01-08T03:31:26;99228.39;;;1.38;100.00
59073;BME280;44859;51.934;15.554;2023-01-08T03:33:56;99228.72;;;1.38;100.00
59073;BME280;44859;51.934;15.554;2023-01-08T03:36:28;99227.48;;;1.40;100.00
59073;BME280;44859;51.934;15.554;2023-01-08T03:39:04;99213.65;;;1.39;100.00
59073;BME280;44859;51.934;15.554;2023-01-08T03:41:35;99202.26;;;1.38;100.00
59073;BME280;44859;51.934;15.554;2023-01-08T03:44:04;99199.48;;;1.38;100.00
59073;BME280;44859;51.934;15.554;2023-01-08T03:46:35;99196.93;;;1.36;100.00
59073;BME280;44859;51.934;15.554;2023-01-08T03:49:06;99197.52;;;1.34;100.00
59073;BME280;44859;51.934;15.554;2023-01-08T03:51:42;99197.77;;;1.30;100.00
59073;BME280;44859;51.934;15.554;2023-01-08T03:54:20;99198.17;;;1.27;100.00
59073;BME280;44859;51.934;15.554;2023-01-08T03:56:50;99192.48;;;1.25;100.00
59073;BME280;44859;51.934;15.554;2023-01-08T03:59:19;99188.58;;;1.22;100.00
59073;BME280;44859;51.934;15.554;2023-01-08T04:01:48;99191.75;;;1.18;100.00
59073;BME280;44859;51.934;15.554;2023-01-08T04:04:19;99192.17;;;1.15;100.00
59073;BME280;44859;51.934;15.554;2023-01-08T04:06:51;99193.09;;;1.12;100.00
59073;BME280;44859;51.934;15.554;2023-01-08T04:09:19;99188.67;;;1.08;100.00
59073;BME280;44859;51.934;15.554;2023-01-08T04:11:58;99194.55;;;1.08;100.00
59073;BME280;44859;51.934;15.554;2023-01-08T04:14:27;99198.48;;;1.11;100.00
59073;BME280;44859;51.934;15.554;2023-01-08T04:16:58;99201.13;;;1.17;100.00
59073;BME280;44859;51.934;15.554;2023-01-08T04:19:30;99194.98;;;1.21;100.00
59073;BME280;44859;51.934;15.554;2023-01-08T04:22:00;99188.84;;;1.26;100.00
59073;BME280;44859;51.934;15.554;2023-01-08T04:24:31;99183.59;;;1.30;100.00
59073;BME280;44859;51.934;15.554;2023-01-08T04:26:59;99186.59;;;1.34;100.00
59073;BME280;44859;51.934;15.554;2023-01-08T04:29:28;99187.06;;;1.37;100.00
59073;BME280;44859;51.934;15.554;2023-01-08T04:32:03;99187.06;;;1.37;100.00
59073;BME280;44859;51.934;15.554;2023-01-08T04:34:35;99185.54;;;1.35;100.00
59073;BME280;44859;51.934;15.554;2023-01-08T04:37:06;99179.00;;;1.33;100.00
59073;BME280;44859;51.934;15.554;2023-01-08T04:39:35;99171.76;;;1.32;100.00
59073;BME280;44859;51.934;15.554;2023-01-08T04:42:04;99166.74;;;1.32;100.00
59073;BME280;44859;51.934;15.554;2023-01-08T04:44:32;99165.34;;;1.32;100.00
59073;BME280;44859;51.934;15.554;2023-01-08T04:47:04;99165.86;;;1.33;100.00
59073;BME280;44859;51.934;15.554;2023-01-08T04:49:33;99165.19;;;1.32;100.00
59073;BME280;44859;51.934;15.554;2023-01-08T04:52:01;99161.88;;;1.33;100.00
59073;BME280;44859;51.934;15.554;2023-01-08T04:54:32;99149.42;;;1.33;100.00
59073;BME280;44859;51.934;15.554;2023-01-08T04:57:06;99137.31;;;1.33;100.00
59073;BME280;44859;51.934;15.554;2023-01-08T04:59:45;99138.65;;;1.35;100.00
59073;BME280;44859;51.934;15.554;2023-01-08T05:02:13;99145.23;;;1.35;100.00
59073;BME280;44859;51.934;15.554;2023-01-08T05:04:46;99141.28;;;1.34;100.00
59073;BME280;44859;51.934;15.554;2023-01-08T05:07:14;99143.48;;;1.36;100.00
59073;BME280;44859;51.934;15.554;2023-01-08T05:09:43;99140.84;;;1.38;100.00
59073;BME280;44859;51.934;15.554;2023-01-08T05:12:11;99139.77;;;1.40;100.00
59073;BME280;44859;51.934;15.554;2023-01-08T05:14:44;99137.48;;;1.42;100.00
59073;BME280;44859;51.934;15.554;2023-01-08T05:17:12;99140.54;;;1.44;100.00
59073;BME280;44859;51.934;15.554;2023-01-08T05:19:43;99140.34;;;1.46;100.00
59073;BME280;44859;51.934;15.554;2023-01-08T05:22:14;99135.31;;;1.46;100.00
59073;BME280;44859;51.934;15.554;2023-01-08T05:24:45;99130.29;;;1.46;100.00
59073;BME280;44859;51.934;15.554;2023-01-08T05:27:13;99121.98;;;1.46;100.00
59073;BME280;44859;51.934;15.554;2023-01-08T05:29:42;99118.38;;;1.44;100.00
59073;BME280;44859;51.934;15.554;2023-01-08T05:32:14;99118.94;;;1.42;100.00
59073;BME280;44859;51.934;15.554;2023-01-08T05:34:44;99115.73;;;1.39;100.00
59073;BME280;44859;51.934;15.554;2023-01-08T05:37:17;99109.39;;;1.36;100.00
59073;BME280;44859;51.934;15.554;2023-01-08T05:39:52;99110.84;;;1.33;100.00
59073;BME280;44859;51.934;15.554;2023-01-08T05:42:20;99107.84;;;1.29;100.00
59073;BME280;44859;51.934;15.554;2023-01-08T05:44:51;99107.20;;;1.25;100.00
59073;BME280;44859;51.934;15.554;2023-01-08T05:47:22;99102.27;;;1.22;100.00
59073;BME280;44859;51.934;15.554;2023-01-08T05:49:51;99100.91;;;1.20;100.00
59073;BME280;44859;51.934;15.554;2023-01-08T05:52:26;99096.44;;;1.19;100.00
59073;BME280;44859;51.934;15.554;2023-01-08T05:54:54;99092.32;;;1.18;100.00
59073;BME280;44859;51.934;15.554;2023-01-08T05:57:23;99085.92;;;1.17;100.00
59073;BME280;44859;51.934;15.554;2023-01-08T05:59:56;99080.06;;;1.16;100.00
59073;BME280;44859;51.934;15.554;2023-01-08T06:02:28;99082.35;;;1.15;100.00
59073;BME280;44859;51.934;15.554;2023-01-08T06:04:59;99078.66;;;1.10;100.00
59073;BME280;44859;51.934;15.554;2023-01-08T06:07:28;99079.05;;;1.07;100.00
59073;BME280;44859;51.934;15.554;2023-01-08T06:09:57;99073.03;;;1.05;100.00
59073;BME280;44859;51.934;15.554;2023-01-08T06:12:25;99069.45;;;1.04;100.00
59073;BME280;44859;51.934;15.554;2023-01-08T06:14:56;99070.65;;;1.04;100.00
59073;BME280;44859;51.934;15.554;2023-01-08T06:17:24;99071.86;;;1.04;100.00
59073;BME280;44859;51.934;15.554;2023-01-08T06:19:53;99067.79;;;1.08;100.00
59073;BME280;44859;51.934;15.554;2023-01-08T06:23:26;99066.60;;;1.15;100.00
59073;BME280;44859;51.934;15.554;2023-01-08T06:26:10;99068.67;;;1.15;100.00
59073;BME280;44859;51.934;15.554;2023-01-08T06:29:05;99078.66;;;1.18;100.00
59073;BME280;44859;51.934;15.554;2023-01-08T06:31:35;99078.44;;;1.20;100.00
59073;BME280;44859;51.934;15.554;2023-01-08T06:34:23;99079.65;;;1.20;100.00
59073;BME280;44859;51.934;15.554;2023-01-08T06:37:02;99079.63;;;1.22;100.00
59073;BME280;44859;51.934;15.554;2023-01-08T06:39:50;99071.96;;;1.23;100.00
59073;BME280;44859;51.934;15.554;2023-01-08T06:42:29;99066.27;;;1.23;100.00
59073;BME280;44859;51.934;15.554;2023-01-08T06:45:00;99061.22;;;1.24;100.00
59073;BME280;44859;51.934;15.554;2023-01-08T06:47:49;99064.28;;;1.26;100.00
59073;BME280;44859;51.934;15.554;2023-01-08T06:50:45;99062.34;;;1.29;100.00
59073;BME280;44859;51.934;15.554;2023-01-08T06:53:59;99060.98;;;1.35;100.00
59073;BME280;44859;51.934;15.554;2023-01-08T06:59:58;99067.30;;;1.46;100.00
59073;BME280;44859;51.934;15.554;2023-01-08T07:03:11;99070.67;;;1.50;100.00
59073;BME280;44859;51.934;15.554;2023-01-08T07:09:58;99074.55;;;1.54;100.00
59073;BME280;44859;51.934;15.554;2023-01-08T07:16:17;99059.91;;;1.58;100.00
59073;BME280;44859;51.934;15.554;2023-01-08T07:19:10;99067.98;;;1.61;100.00
59073;BME280;44859;51.934;15.554;2023-01-08T07:22:30;99069.04;;;1.60;100.00
59073;BME280;44859;51.934;15.554;2023-01-08T07:39:23;99070.16;;;1.65;100.00
59073;BME280;44859;51.934;15.554;2023-01-08T07:46:35;99076.49;;;1.74;100.00
59073;BME280;44859;51.934;15.554;2023-01-08T07:49:04;99072.29;;;1.76;100.00
59073;BME280;44859;51.934;15.554;2023-01-08T07:51:37;99065.98;;;1.79;100.00
59073;BME280;44859;51.934;15.554;2023-01-08T09:07:30;99029.09;;;3.40;100.00
59073;BME280;44859;51.934;15.554;2023-01-08T09:19:30;99034.88;;;3.65;100.00
59073;BME280;44859;51.934;15.554;2023-01-08T09:34:17;99034.39;;;3.90;100.00
59073;BME280;44859;51.934;15.554;2023-01-08T09:36:54;99033.27;;;3.93;100.00
59073;BME280;44859;51.934;15.554;2023-01-08T09:39:23;99035.10;;;3.95;100.00
59073;BME280;44859;51.934;15.554;2023-01-08T09:41:52;99035.71;;;3.98;100.00
59073;BME280;44859;51.934;15.554;2023-01-08T09:44:29;99038.56;;;4.01;100.00
59073;BME280;44859;51.934;15.554;2023-01-08T09:46:59;99033.65;;;4.07;100.00
59073;BME280;44859;51.934;15.554;2023-01-08T09:49:39;99029.15;;;4.12;100.00
59073;BME280;44859;51.934;15.554;2023-01-08T09:52:12;99030.90;;;4.17;100.00
59073;BME280;44859;51.934;15.554;2023-01-08T09:54:42;99019.14;;;4.20;100.00
59073;BME280;44859;51.934;15.554;2023-01-08T09:57:18;99015.13;;;4.25;100.00
59073;BME280;44859;51.934;15.554;2023-01-08T09:59:49;99013.88;;;4.31;100.00
59073;BME280;44859;51.934;15.554;2023-01-08T10:02:24;99007.98;;;4.36;100.00
59073;BME280;44859;51.934;15.554;2023-01-08T10:04:56;99001.08;;;4.40;100.00
59073;BME280;44859;51.934;15.554;2023-01-08T10:07:27;99000.95;;;4.43;100.00
59073;BME280;44859;51.934;15.554;2023-01-08T10:10:00;98987.77;;;4.47;100.00
59073;BME280;44859;51.934;15.554;2023-01-08T10:12:31;98980.48;;;4.51;100.00
59073;BME280;44859;51.934;15.554;2023-01-08T10:15:12;98973.91;;;4.54;100.00
59073;BME280;44859;51.934;15.554;2023-01-08T10:20:23;98959.65;;;4.64;100.00
59073;BME280;44859;51.934;15.554;2023-01-08T10:22:52;98960.87;;;4.64;100.00
59073;BME280;44859;51.934;15.554;2023-01-08T10:25:25;98960.21;;;4.63;100.00
59073;BME280;44859;51.934;15.554;2023-01-08T10:28:00;98966.77;;;4.60;100.00
59073;BME280;44859;51.934;15.554;2023-01-08T10:30:36;98963.75;;;4.57;100.00
59073;BME280;44859;51.934;15.554;2023-01-08T10:36:08;98961.42;;;4.54;100.00
59073;BME280;44859;51.934;15.554;2023-01-08T10:38:47;98960.48;;;4.56;100.00
59073;BME280;44859;51.934;15.554;2023-01-08T10:41:17;98956.36;;;4.59;100.00
59073;BME280;44859;51.934;15.554;2023-01-08T10:43:59;98949.95;;;4.63;100.00
59073;BME280;44859;51.934;15.554;2023-01-08T10:46:42;98937.36;;;4.65;100.00
59073;BME280;44859;51.934;15.554;2023-01-08T10:51:59;98944.00;;;4.69;100.00
59073;BME280;44859;51.934;15.554;2023-01-08T10:57:27;98940.83;;;4.74;100.00
59073;BME280;44859;51.934;15.554;2023-01-08T11:00:20;98939.38;;;4.80;100.00
59073;BME280;44859;51.934;15.554;2023-01-08T11:02:49;98933.39;;;4.87;100.00
59073;BME280;44859;51.934;15.554;2023-01-08T11:05:29;98930.90;;;4.93;100.00
59073;BME280;44859;51.934;15.554;2023-01-08T11:08:07;98929.45;;;4.99;100.00
59073;BME280;44859;51.934;15.554;2023-01-08T11:10:58;98926.10;;;5.04;100.00
59073;BME280;44859;51.934;15.554;2023-01-08T11:13:28;98923.84;;;5.09;100.00
59073;BME280;44859;51.934;15.554;2023-01-08T11:16:06;98930.51;;;5.12;100.00
59073;BME280;44859;51.934;15.554;2023-01-08T11:18:47;98935.44;;;5.15;100.00
59073;BME280;44859;51.934;15.554;2023-01-08T11:21:23;98939.34;;;5.17;100.00
59073;BME280;44859;51.934;15.554;2023-01-08T11:24:26;98936.16;;;5.18;100.00
59073;BME280;44859;51.934;15.554;2023-01-08T11:27:03;98938.40;;;5.19;100.00
59073;BME280;44859;51.934;15.554;2023-01-08T11:33:10;98936.27;;;5.24;100.00
59073;BME280;44859;51.934;15.554;2023-01-08T11:35:43;98925.88;;;5.27;100.00
59073;BME280;44859;51.934;15.554;2023-01-08T11:38:16;98921.74;;;5.30;100.00
59073;BME280;44859;51.934;15.554;2023-01-08T11:41:15;98924.47;;;5.32;100.00
59073;BME280;44859;51.934;15.554;2023-01-08T11:44:11;98920.75;;;5.33;100.00
59073;BME280;44859;51.934;15.554;2023-01-08T11:49:45;98918.35;;;5.36;100.00
59073;BME280;44859;51.934;15.554;2023-01-08T11:52:31;98910.77;;;5.39;100.00
59073;BME280;44859;51.934;15.554;2023-01-08T12:04:08;98904.27;;;5.52;100.00
59073;BME280;44859;51.934;15.554;2023-01-08T12:07:38;98904.51;;;5.55;100.00
59073;BME280;44859;51.934;15.554;2023-01-08T12:10:32;98899.00;;;5.58;100.00
59073;BME280;44859;51.934;15.554;2023-01-08T12:13:13;98890.77;;;5.59;100.00
59073;BME280;44859;51.934;15.554;2023-01-08T12:18:31;98883.84;;;5.62;100.00
59073;BME280;44859;51.934;15.554;2023-01-08T12:21:19;98885.18;;;5.64;100.00
59073;BME280;44859;51.934;15.554;2023-01-08T12:35:51;98875.19;;;5.65;100.00
59073;BME280;44859;51.934;15.554;2023-01-08T12:38:33;98866.84;;;5.65;100.00
59073;BME280;44859;51.934;15.554;2023-01-08T12:41:16;98861.11;;;5.64;100.00
59073;BME280;44859;51.934;15.554;2023-01-08T12:44:17;98870.32;;;5.65;100.00
59073;BME280;44859;51.934;15.554;2023-01-08T12:46:57;98869.68;;;5.63;100.00
59073;BME280;44859;51.934;15.554;2023-01-08T12:49:45;98863.48;;;5.62;100.00
59073;BME280;44859;51.934;15.554;2023-01-08T12:52:28;98859.52;;;5.61;100.00
59073;BME280;44859;51.934;15.554;2023-01-08T13:01:21;98859.61;;;5.58;100.00
59073;BME280;44859;51.934;15.554;2023-01-08T13:04:07;98860.82;;;5.59;100.00
59073;BME280;44859;51.934;15.554;2023-01-08T13:07:04;98856.64;;;5.58;100.00
59073;BME280;44859;51.934;15.554;2023-01-08T13:09:42;98844.65;;;5.58;100.00
59073;BME280;44859;51.934;15.554;2023-01-08T13:12:33;98837.95;;;5.56;100.00
59073;BME280;44859;51.934;15.554;2023-01-08T13:15:03;98831.05;;;5.54;100.00
59073;BME280;44859;51.934;15.554;2023-01-08T13:17:33;98829.52;;;5.53;100.00
59073;BME280;44859;51.934;15.554;2023-01-08T13:20:21;98832.07;;;5.54;100.00
59073;BME280;44859;51.934;15.554;2023-01-08T13:22:52;98833.88;;;5.53;100.00
59073;BME280;44859;51.934;15.554;2023-01-08T13:25:28;98829.96;;;5.51;100.00
59073;BME280;44859;51.934;15.554;2023-01-08T13:27:57;98828.46;;;5.50;100.00
59073;BME280;44859;51.934;15.554;2023-01-08T13:30:42;98831.31;;;5.48;100.00
59073;BME280;44859;51.934;15.554;2023-01-08T13:39:02;98837.66;;;5.47;100.00
59073;BME280;44859;51.934;15.554;2023-01-08T13:41:36;98828.77;;;5.47;100.00
59073;BME280;44859;51.934;15.554;2023-01-08T13:44:16;98827.69;;;5.48;100.00
59073;BME280;44859;51.934;15.554;2023-01-08T13:46:54;98822.80;;;5.48;100.00
59073;BME280;44859;51.934;15.554;2023-01-08T13:49:35;98828.43;;;5.50;100.00
59073;BME280;44859;51.934;15.554;2023-01-08T13:52:05;98828.77;;;5.51;100.00
59073;BME280;44859;51.934;15.554;2023-01-08T13:54:39;98834.48;;;5.51;100.00
59073;BME280;44859;51.934;15.554;2023-01-08T13:57:13;98836.58;;;5.51;100.00
59073;BME280;44859;51.934;15.554;2023-01-08T13:59:57;98840.76;;;5.51;100.00
59073;BME280;44859;51.934;15.554;2023-01-08T14:02:32;98840.02;;;5.52;100.00
59073;BME280;44859;51.934;15.554;2023-01-08T14:05:17;98833.98;;;5.55;100.00
59073;BME280;44859;51.934;15.554;2023-01-08T14:07:51;98829.41;;;5.60;100.00
59073;BME280;44859;51.934;15.554;2023-01-08T14:10:20;98827.80;;;5.65;100.00
59073;BME280;44859;51.934;15.554;2023-01-08T14:12:50;98825.13;;;5.70;100.00
59073;BME280;44859;51.934;15.554;2023-01-08T14:15:22;98821.95;;;5.75;100.00
59073;BME280;44859;51.934;15.554;2023-01-08T14:17:56;98825.86;;;5.78;100.00
59073;BME280;44859;51.934;15.554;2023-01-08T14:20:34;98820.79;;;5.78;100.00
59073;BME280;44859;51.934;15.554;2023-01-08T14:23:23;98825.50;;;5.78;100.00
59073;BME280;44859;51.934;15.554;2023-01-08T14:26:22;98827.17;;;5.75;100.00
59073;BME280;44859;51.934;15.554;2023-01-08T14:29:19;98829.88;;;5.73;99.96
59073;BME280;44859;51.934;15.554;2023-01-08T14:32:11;98827.86;;;5.71;99.94
59073;BME280;44859;51.934;15.554;2023-01-08T14:34:54;98825.42;;;5.67;99.98
59073;BME280;44859;51.934;15.554;2023-01-08T14:37:24;98819.55;;;5.62;99.86
59073;BME280;44859;51.934;15.554;2023-01-08T14:39:55;98819.83;;;5.56;99.93
59073;BME280;44859;51.934;15.554;2023-01-08T14:45:19;98818.29;;;5.43;100.00
59073;BME280;44859;51.934;15.554;2023-01-08T14:47:52;98828.25;;;5.38;99.99
59073;BME280;44859;51.934;15.554;2023-01-08T14:50:26;98831.52;;;5.35;100.00
59073;BME280;44859;51.934;15.554;2023-01-08T14:53:06;98823.54;;;5.30;100.00
59073;BME280;44859;51.934;15.554;2023-01-08T14:55:41;98824.41;;;5.26;100.00
59073;BME280;44859;51.934;15.554;2023-01-08T14:58:20;98820.95;;;5.22;100.00
59073;BME280;44859;51.934;15.554;2023-01-08T15:00:56;98821.75;;;5.19;100.00
59073;BME280;44859;51.934;15.554;2023-01-08T15:03:38;98823.04;;;5.18;100.00
59073;BME280;44859;51.934;15.554;2023-01-08T15:06:08;98823.06;;;5.13;100.00
59073;BME280;44859;51.934;15.554;2023-01-08T15:08:42;98823.42;;;5.08;100.00
59073;BME280;44859;51.934;15.554;2023-01-08T15:13:55;98824.98;;;5.00;100.00
59073;BME280;44859;51.934;15.554;2023-01-08T15:16:36;98822.80;;;4.98;100.00
59073;BME280;44859;51.934;15.554;2023-01-08T15:19:12;98818.70;;;4.96;100.00
59073;BME280;44859;51.934;15.554;2023-01-08T15:22:04;98812.13;;;4.95;100.00
59073;BME280;44859;51.934;15.554;2023-01-08T15:24:41;98812.04;;;4.93;100.00
59073;BME280;44859;51.934;15.554;2023-01-08T15:27:18;98818.35;;;4.92;100.00
59073;BME280;44859;51.934;15.554;2023-01-08T15:29:54;98816.31;;;4.91;100.00
59073;BME280;44859;51.934;15.554;2023-01-08T15:32:33;98810.98;;;4.89;100.00
59073;BME280;44859;51.934;15.554;2023-01-08T15:35:15;98812.11;;;4.87;100.00
59073;BME280;44859;51.934;15.554;2023-01-08T15:37:44;98802.98;;;4.85;100.00
59073;BME280;44859;51.934;15.554;2023-01-08T15:40:20;98798.75;;;4.82;100.00
59073;BME280;44859;51.934;15.554;2023-01-08T15:42:53;98793.98;;;4.79;100.00
59073;BME280;44859;51.934;15.554;2023-01-08T15:45:42;98799.95;;;4.78;100.00
59073;BME280;44859;51.934;15.554;2023-01-08T15:48:12;98799.18;;;4.76;100.00
59073;BME280;44859;51.934;15.554;2023-01-08T15:50:42;98803.89;;;4.76;100.00
59073;BME280;44859;51.934;15.554;2023-01-08T15:53:18;98798.91;;;4.74;100.00
59073;BME280;44859;51.934;15.554;2023-01-08T15:55:50;98798.27;;;4.73;100.00
59073;BME280;44859;51.934;15.554;2023-01-08T15:58:19;98798.15;;;4.71;100.00
59073;BME280;44859;51.934;15.554;2023-01-08T16:00:47;98805.48;;;4.71;100.00
59073;BME280;44859;51.934;15.554;2023-01-08T16:03:16;98801.51;;;4.70;100.00
59073;BME280;44859;51.934;15.554;2023-01-08T16:05:45;98798.39;;;4.70;100.00
59073;BME280;44859;51.934;15.554;2023-01-08T16:08:14;98796.63;;;4.70;100.00
59073;BME280;44859;51.934;15.554;2023-01-08T16:10:43;98800.21;;;4.72;100.00
59073;BME280;44859;51.934;15.554;2023-01-08T16:13:12;98797.04;;;4.73;100.00
59073;BME280;44859;51.934;15.554;2023-01-08T16:15:41;98793.64;;;4.75;100.00
59073;BME280;44859;51.934;15.554;2023-01-08T16:18:12;98792.33;;;4.77;100.00
59073;BME280;44859;51.934;15.554;2023-01-08T16:20:40;98790.05;;;4.78;100.00
59073;BME280;44859;51.934;15.554;2023-01-08T16:23:09;98788.47;;;4.78;100.00
59073;BME280;44859;51.934;15.554;2023-01-08T16:25:45;98790.56;;;4.78;100.00
59073;BME280;44859;51.934;15.554;2023-01-08T16:28:14;98791.38;;;4.79;100.00
59073;BME280;44859;51.934;15.554;2023-01-08T16:30:46;98789.56;;;4.81;100.00
59073;BME280;44859;51.934;15.554;2023-01-08T16:33:19;98790.56;;;4.82;99.94
59073;BME280;44859;51.934;15.554;2023-01-08T16:36:02;98792.62;;;4.83;99.95
59073;BME280;44859;51.934;15.554;2023-01-08T16:38:32;98789.65;;;4.83;99.75
59073;BME280;44859;51.934;15.554;2023-01-08T16:41:01;98796.80;;;4.83;99.75
59073;BME280;44859;51.934;15.554;2023-01-08T16:43:30;98805.36;;;4.82;99.76
59073;BME280;44859;51.934;15.554;2023-01-08T16:46:10;98804.34;;;4.82;99.88
59073;BME280;44859;51.934;15.554;2023-01-08T16:48:40;98800.34;;;4.82;99.29
59073;BME280;44859;51.934;15.554;2023-01-08T16:51:10;98798.59;;;4.82;99.61
59073;BME280;44859;51.934;15.554;2023-01-08T16:53:47;98795.61;;;4.82;99.38